sensor_id;sensor_type;location;lat;lon;timestamp;P1;durP1;ratioP1;P2;durP2;ratioP2
19087;SDS011;9676;50.916;13.352;2023-02-28T00:02:38;10.70;;;9.80;;
19087;SDS011;9676;50.916;13.352;2023-02-28T00:05:30;10.93;;;9.87;;
19087;SDS011;9676;50.916;13.352;2023-02-28T00:08:19;11.23;;;10.23;;
19087;SDS011;9676;50.916;13.352;2023-02-28T00:11:09;10.43;;;9.53;;
19087;SDS011;9676;50.916;13.352;2023-02-28T00:14:02;10.43;;;9.53;;
19087;SDS011;9676;50.916;13.352;2023-02-28T00:16:51;10.97;;;9.90;;
19087;SDS011;9676;50.916;13.352;2023-02-28T00:19:41;10.57;;;9.73;;
19087;SDS011;9676;50.916;13.352;2023-02-28T00:22:30;10.73;;;9.83;;
19087;SDS011;9676;50.916;13.352;2023-02-28T00:25:20;10.80;;;9.90;;
19087;SDS011;9676;50.916;13.352;2023-02-28T00:28:12;10.80;;;9.80;;
19087;SDS011;9676;50.916;13.352;2023-02-28T00:31:03;11.07;;;10.10;;
19087;SDS011;9676;50.916;13.352;2023-02-28T00:33:53;10.73;;;9.83;;
19087;SDS011;9676;50.916;13.352;2023-02-28T00:36:42;10.50;;;9.60;;
19087;SDS011;9676;50.916;13.352;2023-02-28T00:39:34;11.07;;;10.07;;
19087;SDS011;9676;50.916;13.352;2023-02-28T00:42:24;11.10;;;10.10;;
19087;SDS011;9676;50.916;13.352;2023-02-28T00:45:14;10.70;;;9.80;;
19087;SDS011;9676;50.916;13.352;2023-02-28T00:48:05;10.87;;;9.90;;
19087;SDS011;9676;50.916;13.352;2023-02-28T00:50:54;10.70;;;9.80;;
19087;SDS011;9676;50.916;13.352;2023-02-28T00:53:45;10.93;;;10.03;;
19087;SDS011;9676;50.916;13.352;2023-02-28T00:56:36;10.50;;;9.60;;
19087;SDS011;9676;50.916;13.352;2023-02-28T00:59:26;10.40;;;9.60;;
19087;SDS011;9676;50.916;13.352;2023-02-28T01:02:15;10.53;;;9.63;;
19087;SDS011;9676;50.916;13.352;2023-02-28T01:05:08;11.00;;;10.10;;
19087;SDS011;9676;50.916;13.352;2023-02-28T01:07:58;10.27;;;9.47;;
19087;SDS011;9676;50.916;13.352;2023-02-28T01:10:48;10.10;;;9.30;;
19087;SDS011;9676;50.916;13.352;2023-02-28T01:13:37;10.73;;;9.83;;
19087;SDS011;9676;50.916;13.352;2023-02-28T01:16:27;10.43;;;9.53;;
19087;SDS011;9676;50.916;13.352;2023-02-28T01:19:16;10.07;;;9.33;;
19087;SDS011;9676;50.916;13.352;2023-02-28T01:22:07;10.53;;;9.70;;
19087;SDS011;9676;50.916;13.352;2023-02-28T01:24:57;10.80;;;9.90;;
19087;SDS011;9676;50.916;13.352;2023-02-28T01:27:46;10.27;;;9.47;;
19087;SDS011;9676;50.916;13.352;2023-02-28T01:30:36;9.87;;;9.20;;
19087;SDS011;9676;50.916;13.352;2023-02-28T01:33:26;10.80;;;9.80;;
19087;SDS011;9676;50.916;13.352;2023-02-28T01:36:16;10.90;;;10.00;;
19087;SDS011;9676;50.916;13.352;2023-02-28T01:39:08;10.30;;;9.50;;
19087;SDS011;9676;50.916;13.352;2023-02-28T01:41:58;11.17;;;10.17;;
19087;SDS011;9676;50.916;13.352;2023-02-28T01:44:57;10.73;;;9.80;;
19087;SDS011;9676;50.916;13.352;2023-02-28T01:48:03;10.97;;;10.07;;
19087;SDS011;9676;50.916;13.352;2023-02-28T01:50:56;10.80;;;9.90;;
19087;SDS011;9676;50.916;13.352;2023-02-28T01:53:51;11.00;;;10.00;;
19087;SDS011;9676;50.916;13.352;2023-02-28T01:56:47;10.90;;;9.90;;
19087;SDS011;9676;50.916;13.352;2023-02-28T01:59:40;10.17;;;9.27;;
19087;SDS011;9676;50.916;13.352;2023-02-28T02:02:36;10.63;;;9.80;;
19087;SDS011;9676;50.916;13.352;2023-02-28T02:05:27;11.10;;;10.10;;
19087;SDS011;9676;50.916;13.352;2023-02-28T02:08:19;10.77;;;9.97;;
19087;SDS011;9676;50.916;13.352;2023-02-28T02:11:12;10.97;;;9.97;;
19087;SDS011;9676;50.916;13.352;2023-02-28T02:14:13;11.10;;;10.20;;
19087;SDS011;9676;50.916;13.352;2023-02-28T02:17:19;10.57;;;9.77;;
19087;SDS011;9676;50.916;13.352;2023-02-28T02:31:25;10.90;;;10.00;;
19087;SDS011;9676;50.916;13.352;2023-02-28T02:34:51;10.60;;;9.70;;
19087;SDS011;9676;50.916;13.352;2023-02-28T02:37:48;10.47;;;9.50;;
19087;SDS011;9676;50.916;13.352;2023-02-28T02:40:47;10.70;;;9.80;;
19087;SDS011;9676;50.916;13.352;2023-02-28T02:43:47;10.97;;;9.97;;
19087;SDS011;9676;50.916;13.352;2023-02-28T02:46:40;10.73;;;9.83;;
19087;SDS011;9676;50.916;13.352;2023-02-28T02:49:33;10.67;;;9.73;;
19087;SDS011;9676;50.916;13.352;2023-02-28T02:52:28;11.27;;;10.17;;
19087;SDS011;9676;50.916;13.352;2023-02-28T02:55:24;10.87;;;9.97;;
19087;SDS011;9676;50.916;13.352;2023-02-28T02:58:14;11.70;;;10.60;;
19087;SDS011;9676;50.916;13.352;2023-02-28T03:01:07;11.03;;;10.10;;
19087;SDS011;9676;50.916;13.352;2023-02-28T03:04:03;10.33;;;9.53;;
19087;SDS011;9676;50.916;13.352;2023-02-28T03:06:58;11.00;;;10.03;;
19087;SDS011;9676;50.916;13.352;2023-02-28T03:09:52;11.57;;;10.47;;
19087;SDS011;9676;50.916;13.352;2023-02-28T03:16:29;11.10;;;10.10;;
19087;SDS011;9676;50.916;13.352;2023-02-28T03:19:30;11.47;;;10.27;;
19087;SDS011;9676;50.916;13.352;2023-02-28T03:22:43;11.20;;;10.20;;
19087;SDS011;9676;50.916;13.352;2023-02-28T03:25:44;10.83;;;9.93;;
19087;SDS011;9676;50.916;13.352;2023-02-28T03:28:47;10.97;;;10.07;;
19087;SDS011;9676;50.916;13.352;2023-02-28T03:31:44;11.33;;;10.30;;
19087;SDS011;9676;50.916;13.352;2023-02-28T03:34:39;11.30;;;10.13;;
19087;SDS011;9676;50.916;13.352;2023-02-28T03:37:35;11.50;;;10.50;;
19087;SDS011;9676;50.916;13.352;2023-02-28T03:40:29;11.53;;;10.43;;
19087;SDS011;9676;50.916;13.352;2023-02-28T03:43:25;11.10;;;10.10;;
19087;SDS011;9676;50.916;13.352;2023-02-28T03:46:22;11.17;;;10.27;;
19087;SDS011;9676;50.916;13.352;2023-02-28T03:49:16;11.70;;;10.70;;
19087;SDS011;9676;50.916;13.352;2023-02-28T03:52:09;11.47;;;10.47;;
19087;SDS011;9676;50.916;13.352;2023-02-28T03:54:59;11.97;;;10.63;;
19087;SDS011;9676;50.916;13.352;2023-02-28T03:57:56;11.37;;;10.37;;
19087;SDS011;9676;50.916;13.352;2023-02-28T04:00:52;11.40;;;10.47;;
19087;SDS011;9676;50.916;13.352;2023-02-28T04:03:54;11.80;;;10.80;;
19087;SDS011;9676;50.916;13.352;2023-02-28T04:06:44;11.57;;;10.47;;
19087;SDS011;9676;50.916;13.352;2023-02-28T04:09:34;11.23;;;10.23;;
19087;SDS011;9676;50.916;13.352;2023-02-28T04:12:23;11.47;;;10.43;;
19087;SDS011;9676;50.916;13.352;2023-02-28T04:15:13;11.20;;;10.27;;
19087;SDS011;9676;50.916;13.352;2023-02-28T04:18:04;10.93;;;9.93;;
19087;SDS011;9676;50.916;13.352;2023-02-28T04:20:54;11.37;;;10.37;;
19087;SDS011;9676;50.916;13.352;2023-02-28T04:23:43;11.50;;;10.50;;
19087;SDS011;9676;50.916;13.352;2023-02-28T04:26:33;11.37;;;10.37;;
19087;SDS011;9676;50.916;13.352;2023-02-28T04:29:25;12.20;;;11.10;;
19087;SDS011;9676;50.916;13.352;2023-02-28T04:32:16;11.97;;;10.83;;
19087;SDS011;9676;50.916;13.352;2023-02-28T04:35:07;11.40;;;10.40;;
19087;SDS011;9676;50.916;13.352;2023-02-28T04:37:58;11.80;;;10.70;;
19087;SDS011;9676;50.916;13.352;2023-02-28T04:40:48;11.53;;;10.53;;
19087;SDS011;9676;50.916;13.352;2023-02-28T04:43:37;11.80;;;10.70;;
19087;SDS011;9676;50.916;13.352;2023-02-28T04:46:26;11.40;;;10.40;;
19087;SDS011;9676;50.916;13.352;2023-02-28T04:49:16;12.27;;;11.07;;
19087;SDS011;9676;50.916;13.352;2023-02-28T04:52:07;12.07;;;10.90;;
19087;SDS011;9676;50.916;13.352;2023-02-28T04:54:57;11.40;;;10.40;;
19087;SDS011;9676;50.916;13.352;2023-02-28T04:57:47;11.70;;;10.60;;
19087;SDS011;9676;50.916;13.352;2023-02-28T05:00:36;12.57;;;11.03;;
19087;SDS011;9676;50.916;13.352;2023-02-28T05:03:25;11.83;;;10.73;;
19087;SDS011;9676;50.916;13.352;2023-02-28T05:06:15;11.97;;;10.87;;
19087;SDS011;9676;50.916;13.352;2023-02-28T05:09:07;12.13;;;10.97;;
19087;SDS011;9676;50.916;13.352;2023-02-28T05:11:59;12.33;;;11.07;;
19087;SDS011;9676;50.916;13.352;2023-02-28T05:14:48;13.37;;;11.20;;
19087;SDS011;9676;50.916;13.352;2023-02-28T05:17:38;13.90;;;11.40;;
19087;SDS011;9676;50.916;13.352;2023-02-28T05:20:27;12.60;;;11.30;;
19087;SDS011;9676;50.916;13.352;2023-02-28T05:23:17;13.00;;;11.70;;
19087;SDS011;9676;50.916;13.352;2023-02-28T05:26:09;12.47;;;11.20;;
19087;SDS011;9676;50.916;13.352;2023-02-28T05:28:59;11.93;;;10.93;;
19087;SDS011;9676;50.916;13.352;2023-02-28T05:31:48;12.57;;;11.37;;
19087;SDS011;9676;50.916;13.352;2023-02-28T05:34:38;12.93;;;11.63;;
19087;SDS011;9676;50.916;13.352;2023-02-28T05:37:28;12.30;;;11.13;;
19087;SDS011;9676;50.916;13.352;2023-02-28T05:40:17;12.20;;;11.00;;
19087;SDS011;9676;50.916;13.352;2023-02-28T05:43:10;13.70;;;11.43;;
19087;SDS011;9676;50.916;13.352;2023-02-28T05:46:01;12.40;;;11.30;;
19087;SDS011;9676;50.916;13.352;2023-02-28T05:48:52;12.47;;;11.27;;
19087;SDS011;9676;50.916;13.352;2023-02-28T05:51:43;11.90;;;10.80;;
19087;SDS011;9676;50.916;13.352;2023-02-28T05:54:32;12.87;;;11.60;;
19087;SDS011;9676;50.916;13.352;2023-02-28T05:57:22;12.60;;;11.40;;
19087;SDS011;9676;50.916;13.352;2023-02-28T06:00:13;12.60;;;11.40;;
19087;SDS011;9676;50.916;13.352;2023-02-28T06:03:05;12.57;;;11.27;;
19087;SDS011;9676;50.916;13.352;2023-02-28T06:05:54;13.53;;;12.13;;
19087;SDS011;9676;50.916;13.352;2023-02-28T06:08:44;13.23;;;11.93;;
19087;SDS011;9676;50.916;13.352;2023-02-28T06:11:33;12.63;;;11.37;;
19087;SDS011;9676;50.916;13.352;2023-02-28T06:14:23;13.60;;;11.50;;
19087;SDS011;9676;50.916;13.352;2023-02-28T06:17:14;13.20;;;11.90;;
19087;SDS011;9676;50.916;13.352;2023-02-28T06:20:03;13.17;;;11.77;;
19087;SDS011;9676;50.916;13.352;2023-02-28T06:22:54;12.87;;;11.43;;
19087;SDS011;9676;50.916;13.352;2023-02-28T06:25:45;13.23;;;11.87;;
19087;SDS011;9676;50.916;13.352;2023-02-28T06:28:36;12.90;;;11.70;;
19087;SDS011;9676;50.916;13.352;2023-02-28T06:31:26;13.70;;;12.40;;
19087;SDS011;9676;50.916;13.352;2023-02-28T06:34:18;14.23;;;12.70;;
19087;SDS011;9676;50.916;13.352;2023-02-28T06:37:07;13.90;;;12.50;;
19087;SDS011;9676;50.916;13.352;2023-02-28T06:39:57;14.20;;;11.67;;
19087;SDS011;9676;50.916;13.352;2023-02-28T06:42:46;12.53;;;11.23;;
19087;SDS011;9676;50.916;13.352;2023-02-28T06:45:36;12.80;;;11.60;;
19087;SDS011;9676;50.916;13.352;2023-02-28T06:48:25;13.57;;;12.17;;
19087;SDS011;9676;50.916;13.352;2023-02-28T06:51:17;14.90;;;13.27;;
19087;SDS011;9676;50.916;13.352;2023-02-28T06:54:09;14.53;;;13.00;;
19087;SDS011;9676;50.916;13.352;2023-02-28T06:56:59;13.93;;;12.57;;
19087;SDS011;9676;50.916;13.352;2023-02-28T06:59:49;14.00;;;12.60;;
19087;SDS011;9676;50.916;13.352;2023-02-28T07:02:38;13.90;;;12.50;;
19087;SDS011;9676;50.916;13.352;2023-02-28T07:05:27;14.40;;;12.90;;
19087;SDS011;9676;50.916;13.352;2023-02-28T07:08:18;13.53;;;12.23;;
19087;SDS011;9676;50.916;13.352;2023-02-28T07:11:07;15.63;;;12.37;;
19087;SDS011;9676;50.916;13.352;2023-02-28T07:13:57;13.37;;;12.07;;
19087;SDS011;9676;50.916;13.352;2023-02-28T07:16:46;13.53;;;12.13;;
19087;SDS011;9676;50.916;13.352;2023-02-28T07:19:37;14.10;;;12.70;;
19087;SDS011;9676;50.916;13.352;2023-02-28T07:22:27;15.40;;;12.80;;
19087;SDS011;9676;50.916;13.352;2023-02-28T07:25:18;15.23;;;13.67;;
19087;SDS011;9676;50.916;13.352;2023-02-28T07:28:07;14.60;;;13.10;;
19087;SDS011;9676;50.916;13.352;2023-02-28T07:30:56;14.83;;;13.30;;
19087;SDS011;9676;50.916;13.352;2023-02-28T07:33:51;16.17;;;13.50;;
19087;SDS011;9676;50.916;13.352;2023-02-28T07:36:41;16.93;;;13.60;;
19087;SDS011;9676;50.916;13.352;2023-02-28T07:39:30;16.00;;;14.30;;
19087;SDS011;9676;50.916;13.352;2023-02-28T07:42:21;17.37;;;14.67;;
19087;SDS011;9676;50.916;13.352;2023-02-28T07:45:11;19.07;;;14.20;;
19087;SDS011;9676;50.916;13.352;2023-02-28T07:48:00;17.37;;;14.53;;
19087;SDS011;9676;50.916;13.352;2023-02-28T07:50:53;18.40;;;14.70;;
19087;SDS011;9676;50.916;13.352;2023-02-28T07:53:43;18.73;;;15.10;;
19087;SDS011;9676;50.916;13.352;2023-02-28T07:56:33;21.20;;;14.50;;
19087;SDS011;9676;50.916;13.352;2023-02-28T07:59:24;17.97;;;14.07;;
19087;SDS011;9676;50.916;13.352;2023-02-28T08:02:13;16.60;;;14.23;;
19087;SDS011;9676;50.916;13.352;2023-02-28T08:05:05;17.57;;;14.60;;
19087;SDS011;9676;50.916;13.352;2023-02-28T08:07:55;15.57;;;13.93;;
19087;SDS011;9676;50.916;13.352;2023-02-28T08:10:45;16.30;;;14.27;;
19087;SDS011;9676;50.916;13.352;2023-02-28T08:13:34;15.73;;;13.70;;
19087;SDS011;9676;50.916;13.352;2023-02-28T08:16:25;15.93;;;13.50;;
19087;SDS011;9676;50.916;13.352;2023-02-28T08:19:14;14.97;;;13.37;;
19087;SDS011;9676;50.916;13.352;2023-02-28T08:22:04;16.67;;;13.90;;
19087;SDS011;9676;50.916;13.352;2023-02-28T08:24:53;14.10;;;12.70;;
19087;SDS011;9676;50.916;13.352;2023-02-28T08:27:43;14.50;;;13.00;;
19087;SDS011;9676;50.916;13.352;2023-02-28T08:30:32;14.87;;;13.37;;
19087;SDS011;9676;50.916;13.352;2023-02-28T08:33:23;15.23;;;13.30;;
19087;SDS011;9676;50.916;13.352;2023-02-28T08:36:15;14.47;;;13.00;;
19087;SDS011;9676;50.916;13.352;2023-02-28T08:39:05;13.93;;;12.37;;
19087;SDS011;9676;50.916;13.352;2023-02-28T08:41:55;13.63;;;12.23;;
19087;SDS011;9676;50.916;13.352;2023-02-28T08:44:54;13.93;;;12.50;;
19087;SDS011;9676;50.916;13.352;2023-02-28T08:47:43;13.83;;;12.40;;
19087;SDS011;9676;50.916;13.352;2023-02-28T08:50:34;14.53;;;12.93;;
19087;SDS011;9676;50.916;13.352;2023-02-28T08:53:23;15.77;;;13.40;;
19087;SDS011;9676;50.916;13.352;2023-02-28T08:56:13;14.13;;;12.40;;
19087;SDS011;9676;50.916;13.352;2023-02-28T08:59:06;14.73;;;13.03;;
19087;SDS011;9676;50.916;13.352;2023-02-28T09:01:57;13.80;;;12.40;;
19087;SDS011;9676;50.916;13.352;2023-02-28T09:04:46;14.13;;;12.63;;
19087;SDS011;9676;50.916;13.352;2023-02-28T09:07:40;18.13;;;12.83;;
19087;SDS011;9676;50.916;13.352;2023-02-28T09:10:29;15.00;;;13.40;;
19087;SDS011;9676;50.916;13.352;2023-02-28T09:13:18;14.23;;;12.70;;
19087;SDS011;9676;50.916;13.352;2023-02-28T09:16:10;15.27;;;12.87;;
19087;SDS011;9676;50.916;13.352;2023-02-28T09:19:02;15.73;;;12.73;;
19087;SDS011;9676;50.916;13.352;2023-02-28T09:21:51;14.20;;;12.67;;
19087;SDS011;9676;50.916;13.352;2023-02-28T09:24:42;13.83;;;12.40;;
19087;SDS011;9676;50.916;13.352;2023-02-28T09:27:32;16.00;;;14.30;;
19087;SDS011;9676;50.916;13.352;2023-02-28T09:30:21;15.37;;;13.77;;
19087;SDS011;9676;50.916;13.352;2023-02-28T09:33:11;15.63;;;13.87;;
19087;SDS011;9676;50.916;13.352;2023-02-28T09:36:02;14.93;;;13.37;;
19087;SDS011;9676;50.916;13.352;2023-02-28T09:38:52;15.63;;;13.80;;
19087;SDS011;9676;50.916;13.352;2023-02-28T09:41:44;14.37;;;12.83;;
19087;SDS011;9676;50.916;13.352;2023-02-28T09:44:38;14.70;;;12.87;;
19087;SDS011;9676;50.916;13.352;2023-02-28T09:47:33;14.13;;;12.43;;
19087;SDS011;9676;50.916;13.352;2023-02-28T09:50:29;14.87;;;13.17;;
19087;SDS011;9676;50.916;13.352;2023-02-28T09:53:26;14.67;;;13.17;;
19087;SDS011;9676;50.916;13.352;2023-02-28T09:56:21;16.30;;;13.83;;
19087;SDS011;9676;50.916;13.352;2023-02-28T09:59:18;15.90;;;13.30;;
19087;SDS011;9676;50.916;13.352;2023-02-28T10:02:27;14.77;;;12.90;;
19087;SDS011;9676;50.916;13.352;2023-02-28T10:05:38;14.73;;;13.13;;
19087;SDS011;9676;50.916;13.352;2023-02-28T10:08:32;14.57;;;13.00;;
19087;SDS011;9676;50.916;13.352;2023-02-28T10:11:30;14.50;;;13.00;;
19087;SDS011;9676;50.916;13.352;2023-02-28T10:14:24;13.87;;;12.40;;
19087;SDS011;9676;50.916;13.352;2023-02-28T10:17:17;19.40;;;12.43;;
19087;SDS011;9676;50.916;13.352;2023-02-28T10:20:11;13.47;;;12.07;;
19087;SDS011;9676;50.916;13.352;2023-02-28T10:23:09;14.90;;;13.30;;
19087;SDS011;9676;50.916;13.352;2023-02-28T10:26:09;13.30;;;11.90;;
19087;SDS011;9676;50.916;13.352;2023-02-28T10:29:03;14.43;;;12.90;;
19087;SDS011;9676;50.916;13.352;2023-02-28T10:31:54;14.07;;;12.60;;
19087;SDS011;9676;50.916;13.352;2023-02-28T10:34:43;14.80;;;12.83;;
19087;SDS011;9676;50.916;13.352;2023-02-28T10:37:33;16.40;;;12.70;;
19087;SDS011;9676;50.916;13.352;2023-02-28T10:40:27;14.07;;;12.40;;
19087;SDS011;9676;50.916;13.352;2023-02-28T10:43:23;13.60;;;12.20;;
19087;SDS011;9676;50.916;13.352;2023-02-28T10:46:14;16.67;;;13.63;;
19087;SDS011;9676;50.916;13.352;2023-02-28T10:49:17;14.63;;;13.03;;
19087;SDS011;9676;50.916;13.352;2023-02-28T10:52:10;14.40;;;12.90;;
19087;SDS011;9676;50.916;13.352;2023-02-28T10:55:13;14.03;;;12.57;;
19087;SDS011;9676;50.916;13.352;2023-02-28T10:58:20;14.47;;;12.63;;
19087;SDS011;9676;50.916;13.352;2023-02-28T11:01:12;13.47;;;12.07;;
19087;SDS011;9676;50.916;13.352;2023-02-28T11:04:03;13.17;;;11.80;;
19087;SDS011;9676;50.916;13.352;2023-02-28T11:07:16;15.17;;;13.03;;
19087;SDS011;9676;50.916;13.352;2023-02-28T11:10:16;13.00;;;11.70;;
19087;SDS011;9676;50.916;13.352;2023-02-28T11:13:13;13.60;;;11.90;;
19087;SDS011;9676;50.916;13.352;2023-02-28T11:16:09;14.60;;;12.57;;
19087;SDS011;9676;50.916;13.352;2023-02-28T11:19:01;16.40;;;12.60;;
19087;SDS011;9676;50.916;13.352;2023-02-28T11:21:54;17.00;;;12.10;;
19087;SDS011;9676;50.916;13.352;2023-02-28T11:24:47;14.50;;;12.90;;
19087;SDS011;9676;50.916;13.352;2023-02-28T11:27:44;13.70;;;12.20;;
19087;SDS011;9676;50.916;13.352;2023-02-28T11:30:37;13.87;;;12.47;;
19087;SDS011;9676;50.916;13.352;2023-02-28T11:33:28;15.13;;;12.63;;
19087;SDS011;9676;50.916;13.352;2023-02-28T11:36:21;15.10;;;12.70;;
19087;SDS011;9676;50.916;13.352;2023-02-28T11:39:14;15.80;;;12.97;;
19087;SDS011;9676;50.916;13.352;2023-02-28T11:42:12;14.63;;;12.97;;
19087;SDS011;9676;50.916;13.352;2023-02-28T11:48:33;12.90;;;11.57;;
19087;SDS011;9676;50.916;13.352;2023-02-28T11:51:45;13.40;;;12.00;;
19087;SDS011;9676;50.916;13.352;2023-02-28T11:54:54;14.77;;;13.17;;
19087;SDS011;9676;50.916;13.352;2023-02-28T11:58:04;14.73;;;13.10;;
19087;SDS011;9676;50.916;13.352;2023-02-28T12:01:17;14.27;;;12.77;;
19087;SDS011;9676;50.916;13.352;2023-02-28T12:04:24;17.80;;;12.57;;
19087;SDS011;9676;50.916;13.352;2023-02-28T12:07:26;14.03;;;12.53;;
19087;SDS011;9676;50.916;13.352;2023-02-28T12:10:26;15.40;;;13.47;;
19087;SDS011;9676;50.916;13.352;2023-02-28T12:13:18;14.70;;;13.07;;
19087;SDS011;9676;50.916;13.352;2023-02-28T12:16:29;14.60;;;13.10;;
19087;SDS011;9676;50.916;13.352;2023-02-28T12:19:40;14.50;;;12.30;;
19087;SDS011;9676;50.916;13.352;2023-02-28T12:22:38;14.07;;;12.20;;
19087;SDS011;9676;50.916;13.352;2023-02-28T12:25:40;13.10;;;11.67;;
19087;SDS011;9676;50.916;13.352;2023-02-28T12:28:42;13.43;;;12.13;;
19087;SDS011;9676;50.916;13.352;2023-02-28T12:31:35;14.23;;;12.73;;
19087;SDS011;9676;50.916;13.352;2023-02-28T12:34:31;16.90;;;13.27;;
19087;SDS011;9676;50.916;13.352;2023-02-28T12:37:25;14.27;;;12.73;;
19087;SDS011;9676;50.916;13.352;2023-02-28T12:40:22;14.13;;;12.63;;
19087;SDS011;9676;50.916;13.352;2023-02-28T12:43:16;15.47;;;13.03;;
19087;SDS011;9676;50.916;13.352;2023-02-28T12:46:07;13.33;;;12.03;;
19087;SDS011;9676;50.916;13.352;2023-02-28T12:49:05;15.07;;;12.60;;
19087;SDS011;9676;50.916;13.352;2023-02-28T12:51:59;14.70;;;12.80;;
19087;SDS011;9676;50.916;13.352;2023-02-28T12:54:51;13.37;;;12.07;;
19087;SDS011;9676;50.916;13.352;2023-02-28T12:57:47;13.83;;;12.40;;
19087;SDS011;9676;50.916;13.352;2023-02-28T13:00:47;14.80;;;13.13;;
19087;SDS011;9676;50.916;13.352;2023-02-28T13:04:07;13.90;;;12.40;;
19087;SDS011;9676;50.916;13.352;2023-02-28T13:07:36;14.17;;;12.50;;
19087;SDS011;9676;50.916;13.352;2023-02-28T13:10:53;14.03;;;12.63;;
19087;SDS011;9676;50.916;13.352;2023-02-28T13:13:43;14.70;;;13.00;;
19087;SDS011;9676;50.916;13.352;2023-02-28T13:19:56;14.77;;;13.03;;
19087;SDS011;9676;50.916;13.352;2023-02-28T13:22:47;14.60;;;13.00;;
19087;SDS011;9676;50.916;13.352;2023-02-28T13:25:49;13.50;;;12.20;;
19087;SDS011;9676;50.916;13.352;2023-02-28T13:35:36;16.60;;;13.07;;
19087;SDS011;9676;50.916;13.352;2023-02-28T13:38:34;13.47;;;12.17;;
19087;SDS011;9676;50.916;13.352;2023-02-28T13:41:44;13.83;;;12.50;;
19087;SDS011;9676;50.916;13.352;2023-02-28T13:48:17;14.10;;;12.70;;
19087;SDS011;9676;50.916;13.352;2023-02-28T13:51:28;15.80;;;12.70;;
19087;SDS011;9676;50.916;13.352;2023-02-28T13:54:32;14.60;;;13.20;;
19087;SDS011;9676;50.916;13.352;2023-02-28T13:57:40;13.50;;;12.10;;
19087;SDS011;9676;50.916;13.352;2023-02-28T14:00:52;13.27;;;12.07;;
19087;SDS011;9676;50.916;13.352;2023-02-28T14:04:15;13.40;;;12.10;;
19087;SDS011;9676;50.916;13.352;2023-02-28T14:07:42;13.37;;;11.97;;
19087;SDS011;9676;50.916;13.352;2023-02-28T14:10:36;12.70;;;11.50;;
19087;SDS011;9676;50.916;13.352;2023-02-28T14:13:39;13.90;;;12.50;;
19087;SDS011;9676;50.916;13.352;2023-02-28T14:16:38;13.30;;;12.10;;
19087;SDS011;9676;50.916;13.352;2023-02-28T14:19:33;13.80;;;12.40;;
19087;SDS011;9676;50.916;13.352;2023-02-28T14:22:36;13.30;;;12.10;;
19087;SDS011;9676;50.916;13.352;2023-02-28T14:25:40;13.00;;;11.67;;
19087;SDS011;9676;50.916;13.352;2023-02-28T14:28:43;13.60;;;12.20;;
19087;SDS011;9676;50.916;13.352;2023-02-28T14:31:49;12.83;;;11.60;;
19087;SDS011;9676;50.916;13.352;2023-02-28T14:34:50;13.80;;;12.23;;
19087;SDS011;9676;50.916;13.352;2023-02-28T14:37:51;13.93;;;12.50;;
19087;SDS011;9676;50.916;13.352;2023-02-28T14:40:42;14.13;;;12.57;;
19087;SDS011;9676;50.916;13.352;2023-02-28T14:43:31;13.70;;;12.30;;
19087;SDS011;9676;50.916;13.352;2023-02-28T14:46:21;13.50;;;12.20;;
19087;SDS011;9676;50.916;13.352;2023-02-28T14:49:17;13.90;;;12.50;;
19087;SDS011;9676;50.916;13.352;2023-02-28T14:52:14;13.57;;;12.13;;
19087;SDS011;9676;50.916;13.352;2023-02-28T14:55:12;13.20;;;12.00;;
19087;SDS011;9676;50.916;13.352;2023-02-28T14:58:04;13.70;;;12.30;;
19087;SDS011;9676;50.916;13.352;2023-02-28T15:00:55;14.03;;;12.53;;
19087;SDS011;9676;50.916;13.352;2023-02-28T15:03:47;14.03;;;12.17;;
19087;SDS011;9676;50.916;13.352;2023-02-28T15:06:45;13.40;;;12.10;;
19087;SDS011;9676;50.916;13.352;2023-02-28T15:09:36;13.40;;;12.10;;
19087;SDS011;9676;50.916;13.352;2023-02-28T15:12:26;14.23;;;12.73;;
19087;SDS011;9676;50.916;13.352;2023-02-28T15:15:16;13.63;;;12.33;;
19087;SDS011;9676;50.916;13.352;2023-02-28T15:18:22;13.97;;;12.67;;
19087;SDS011;9676;50.916;13.352;2023-02-28T15:21:20;13.63;;;12.23;;
19087;SDS011;9676;50.916;13.352;2023-02-28T15:24:13;12.93;;;11.73;;
19087;SDS011;9676;50.916;13.352;2023-02-28T15:27:13;13.00;;;11.70;;
19087;SDS011;9676;50.916;13.352;2023-02-28T15:30:13;13.13;;;11.83;;
19087;SDS011;9676;50.916;13.352;2023-02-28T15:33:07;14.20;;;12.80;;
19087;SDS011;9676;50.916;13.352;2023-02-28T15:36:11;12.97;;;11.77;;
19087;SDS011;9676;50.916;13.352;2023-02-28T15:39:17;13.47;;;12.07;;
19087;SDS011;9676;50.916;13.352;2023-02-28T15:42:09;14.47;;;12.97;;
19087;SDS011;9676;50.916;13.352;2023-02-28T15:45:01;14.67;;;13.17;;
19087;SDS011;9676;50.916;13.352;2023-02-28T15:47:51;14.70;;;12.80;;
19087;SDS011;9676;50.916;13.352;2023-02-28T15:50:42;13.37;;;12.07;;
19087;SDS011;9676;50.916;13.352;2023-02-28T15:53:32;13.63;;;12.23;;
19087;SDS011;9676;50.916;13.352;2023-02-28T15:56:25;13.23;;;11.90;;
19087;SDS011;9676;50.916;13.352;2023-02-28T15:59:18;14.10;;;12.70;;
19087;SDS011;9676;50.916;13.352;2023-02-28T16:02:13;13.10;;;11.87;;
19087;SDS011;9676;50.916;13.352;2023-02-28T16:05:18;15.03;;;13.43;;
19087;SDS011;9676;50.916;13.352;2023-02-28T16:08:17;14.13;;;12.63;;
19087;SDS011;9676;50.916;13.352;2023-02-28T16:11:08;13.90;;;12.60;;
19087;SDS011;9676;50.916;13.352;2023-02-28T16:13:58;13.57;;;12.17;;
19087;SDS011;9676;50.916;13.352;2023-02-28T16:16:51;15.70;;;13.00;;
19087;SDS011;9676;50.916;13.352;2023-02-28T16:19:43;13.40;;;12.00;;
19087;SDS011;9676;50.916;13.352;2023-02-28T16:22:32;13.10;;;11.83;;
19087;SDS011;9676;50.916;13.352;2023-02-28T16:25:24;13.37;;;11.97;;
19087;SDS011;9676;50.916;13.352;2023-02-28T16:28:23;13.00;;;11.80;;
19087;SDS011;9676;50.916;13.352;2023-02-28T16:31:18;13.53;;;12.13;;
19087;SDS011;9676;50.916;13.352;2023-02-28T16:34:09;14.00;;;12.53;;
19087;SDS011;9676;50.916;13.352;2023-02-28T16:36:59;13.50;;;12.20;;
19087;SDS011;9676;50.916;13.352;2023-02-28T16:39:48;13.87;;;12.47;;
19087;SDS011;9676;50.916;13.352;2023-02-28T16:42:38;13.80;;;12.40;;
19087;SDS011;9676;50.916;13.352;2023-02-28T16:45:29;13.77;;;12.33;;
19087;SDS011;9676;50.916;13.352;2023-02-28T16:48:18;14.00;;;12.60;;
19087;SDS011;9676;50.916;13.352;2023-02-28T16:51:11;13.40;;;12.10;;
19087;SDS011;9676;50.916;13.352;2023-02-28T16:54:01;14.30;;;12.80;;
19087;SDS011;9676;50.916;13.352;2023-02-28T16:56:51;13.50;;;12.20;;
19087;SDS011;9676;50.916;13.352;2023-02-28T16:59:40;13.60;;;12.30;;
19087;SDS011;9676;50.916;13.352;2023-02-28T17:02:29;13.90;;;12.50;;
19087;SDS011;9676;50.916;13.352;2023-02-28T17:05:19;13.47;;;12.07;;
19087;SDS011;9676;50.916;13.352;2023-02-28T17:08:11;14.00;;;12.50;;
19087;SDS011;9676;50.916;13.352;2023-02-28T17:11:00;13.67;;;12.27;;
19087;SDS011;9676;50.916;13.352;2023-02-28T17:13:50;14.27;;;12.70;;
19087;SDS011;9676;50.916;13.352;2023-02-28T17:16:41;13.57;;;12.17;;
19087;SDS011;9676;50.916;13.352;2023-02-28T17:19:31;13.00;;;11.70;;
19087;SDS011;9676;50.916;13.352;2023-02-28T17:22:21;13.20;;;12.00;;
19087;SDS011;9676;50.916;13.352;2023-02-28T17:25:11;13.80;;;12.23;;
19087;SDS011;9676;50.916;13.352;2023-02-28T17:28:01;14.10;;;12.60;;
19087;SDS011;9676;50.916;13.352;2023-02-28T17:30:50;13.50;;;12.07;;
19087;SDS011;9676;50.916;13.352;2023-02-28T17:33:40;13.77;;;12.43;;